Schaumburg, Illinois
Current Conditions -  °F | °C
As of 4:51 PM on Wednesday 22 Oct 2014 (Local Time) from KORD Reporting Station
Clear Clear  
Wind Chill: 51°   Ceiling: Unl
Heat Index: 51°   Visibility: 10mi
Dew Point: 37°   Wind: 10mph
Humidity: 59%   Direction: 100°E
Pressure: 30.28"   Gusts: NA
Location:  42.03°N, 88.07°W
Report Text: KORD 222151Z 10009KT 10SM CLR 11/03 A3028 RMK AO2 SLP256 T01060028
Loading
Personal Weather Stations






























Interactive Weather Map
Tropical Storm Tracking
New forecast layout! Learn more

10-Day Weather Forecast

Advertisements
Track Severe Weather on mobile